createdAt,value
2023-01-23T00:00:51.183Z,0.60
2023-01-23T00:15:56.875Z,0.54
2023-01-23T00:31:09.929Z,0.44
2023-01-23T00:46:17.017Z,0.28
2023-01-23T01:01:23.199Z,0.24
2023-01-23T01:16:28.912Z,0.37
2023-01-23T01:31:35.620Z,0.58
2023-01-23T01:46:41.422Z,0.65
2023-01-23T02:01:46.303Z,0.69
2023-01-23T02:16:53.366Z,0.55
2023-01-23T02:31:57.500Z,0.35
2023-01-23T02:47:05.618Z,0.26
2023-01-23T03:02:09.796Z,0.26
2023-01-23T03:17:16.379Z,0.28
2023-01-23T03:32:21.100Z,0.39
2023-01-23T03:47:27.022Z,0.32
2023-01-23T04:02:32.737Z,0.34
2023-01-23T04:17:40.636Z,0.33
2023-01-23T04:32:46.253Z,0.24
2023-01-23T04:47:52.561Z,0.24
2023-01-23T05:02:57.147Z,0.25
2023-01-23T05:18:01.787Z,0.22
2023-01-23T05:33:05.855Z,0.29
2023-01-23T05:48:11.043Z,0.35
2023-01-23T06:03:15.339Z,0.16
2023-01-23T06:18:35.039Z,-0.01
2023-01-23T06:33:39.558Z,-0.00
2023-01-23T06:48:47.266Z,0.07
2023-01-23T07:03:51.337Z,0.22
2023-01-23T07:18:59.311Z,0.27
2023-01-23T07:34:07.737Z,0.31
2023-01-23T07:49:13.003Z,0.41
2023-01-23T08:04:16.891Z,0.52
2023-01-23T08:19:22.115Z,0.56
2023-01-23T08:34:25.955Z,0.50
2023-01-23T08:49:30.730Z,0.42
2023-01-23T09:04:34.805Z,0.41
2023-01-23T09:19:39.519Z,0.71
2023-01-23T09:34:43.675Z,1.03
2023-01-23T09:49:51.583Z,1.25
2023-01-23T10:04:56.380Z,1.19
2023-01-23T10:20:20.077Z,1.19
2023-01-23T10:35:42.994Z,1.32
2023-01-23T10:50:47.797Z,1.32
2023-01-23T11:05:53.393Z,1.21
2023-01-23T11:20:58.007Z,1.42
2023-01-23T11:36:07.924Z,1.52
2023-01-23T11:51:13.062Z,1.48
2023-01-23T12:06:22.532Z,1.67
2023-01-23T12:21:26.938Z,1.78
2023-01-23T12:37:08.227Z,1.76
2023-01-23T12:52:17.621Z,1.58
2023-01-23T13:07:25.580Z,1.60
2023-01-23T13:22:32.706Z,1.36
2023-01-23T13:37:39.873Z,1.48
2023-01-23T14:54:33.177Z,1.00
2023-01-23T15:09:41.534Z,0.62
2023-01-23T15:24:46.954Z,0.32
2023-01-23T15:39:51.669Z,0.26
2023-01-23T15:55:00.657Z,0.22
2023-01-23T16:10:05.067Z,0.26
2023-01-23T16:25:42.985Z,0.30
2023-01-23T16:40:47.826Z,0.41
2023-01-23T16:55:52.830Z,0.44
2023-01-23T17:10:58.174Z,0.33
2023-01-23T17:26:07.993Z,0.30
2023-01-23T17:41:15.311Z,0.40
2023-01-23T17:56:25.094Z,0.38
2023-01-23T18:11:29.686Z,0.24
2023-01-23T18:26:45.963Z,0.10
2023-01-23T18:41:59.962Z,0.12
2023-01-23T18:57:11.628Z,0.17
2023-01-23T19:12:25.901Z,0.26
2023-01-23T19:27:31.533Z,0.21
2023-01-23T19:42:54.296Z,0.19
2023-01-23T19:58:03.089Z,0.20
2023-01-23T20:13:09.123Z,0.20
2023-01-23T20:28:13.429Z,0.22
2023-01-23T20:43:17.611Z,0.24
2023-01-23T20:58:40.556Z,0.30
2023-01-23T21:13:47.502Z,0.26
2023-01-23T21:28:53.086Z,0.26
2023-01-23T21:43:56.920Z,0.27
2023-01-23T21:59:02.117Z,0.35
2023-01-23T22:14:06.091Z,0.27
2023-01-23T22:29:12.008Z,0.12
2023-01-23T22:44:15.937Z,0.10
2023-01-23T22:59:20.578Z,0.28
2023-01-23T23:14:24.336Z,0.35
2023-01-23T23:29:29.645Z,0.36
2023-01-23T23:44:33.718Z,0.50
2023-01-23T23:59:38.519Z,0.66
